sensor_id;sensor_type;location;lat;lon;timestamp;temperature;humidity
12843;DHT22;35724;49.324;-123.118;2023-08-21T00:07:15;24.80;70.60
12843;DHT22;35724;49.324;-123.118;2023-08-21T00:17:24;25.00;70.60
12843;DHT22;35724;49.324;-123.118;2023-08-21T00:27:31;25.00;72.30
12843;DHT22;35724;49.324;-123.118;2023-08-21T00:37:40;25.00;69.20
12843;DHT22;35724;49.324;-123.118;2023-08-21T00:47:48;24.90;70.30
12843;DHT22;35724;49.324;-123.118;2023-08-21T00:57:56;24.80;72.60
12843;DHT22;35724;49.324;-123.118;2023-08-21T01:08:11;24.90;71.80
12843;DHT22;35724;49.324;-123.118;2023-08-21T01:18:23;25.00;71.70
12843;DHT22;35724;49.324;-123.118;2023-08-21T01:28:33;25.00;73.50
12843;DHT22;35724;49.324;-123.118;2023-08-21T01:38:41;25.10;74.10
12843;DHT22;35724;49.324;-123.118;2023-08-21T01:48:50;25.20;72.00
12843;DHT22;35724;49.324;-123.118;2023-08-21T01:58:57;25.20;71.50
12843;DHT22;35724;49.324;-123.118;2023-08-21T02:09:06;25.10;70.30
12843;DHT22;35724;49.324;-123.118;2023-08-21T02:19:13;25.20;69.60
12843;DHT22;35724;49.324;-123.118;2023-08-21T02:29:21;25.20;70.10
12843;DHT22;35724;49.324;-123.118;2023-08-21T02:39:29;25.30;70.30
12843;DHT22;35724;49.324;-123.118;2023-08-21T02:49:38;25.30;68.40
12843;DHT22;35724;49.324;-123.118;2023-08-21T02:59:45;25.30;70.00
12843;DHT22;35724;49.324;-123.118;2023-08-21T03:09:53;25.30;71.20
12843;DHT22;35724;49.324;-123.118;2023-08-21T03:20:00;25.40;71.30
12843;DHT22;35724;49.324;-123.118;2023-08-21T03:30:12;25.40;70.10
12843;DHT22;35724;49.324;-123.118;2023-08-21T03:40:20;25.40;70.20
12843;DHT22;35724;49.324;-123.118;2023-08-21T03:50:30;25.40;68.70
12843;DHT22;35724;49.324;-123.118;2023-08-21T04:00:37;25.40;67.90
12843;DHT22;35724;49.324;-123.118;2023-08-21T04:10:46;25.40;66.90
12843;DHT22;35724;49.324;-123.118;2023-08-21T04:20:53;25.50;66.30
12843;DHT22;35724;49.324;-123.118;2023-08-21T04:31:05;25.40;65.80
12843;DHT22;35724;49.324;-123.118;2023-08-21T04:41:12;25.40;65.60
12843;DHT22;35724;49.324;-123.118;2023-08-21T04:51:24;25.40;65.20
12843;DHT22;35724;49.324;-123.118;2023-08-21T05:01:31;25.40;64.90
12843;DHT22;35724;49.324;-123.118;2023-08-21T05:11:40;25.40;64.70
12843;DHT22;35724;49.324;-123.118;2023-08-21T05:21:48;25.40;64.50
12843;DHT22;35724;49.324;-123.118;2023-08-21T05:31:57;25.40;64.20
12843;DHT22;35724;49.324;-123.118;2023-08-21T05:42:04;25.40;64.00
12843;DHT22;35724;49.324;-123.118;2023-08-21T05:52:14;25.40;63.80
12843;DHT22;35724;49.324;-123.118;2023-08-21T06:02:22;25.40;63.80
12843;DHT22;35724;49.324;-123.118;2023-08-21T06:12:31;25.50;63.60
12843;DHT22;35724;49.324;-123.118;2023-08-21T06:22:38;25.50;63.50
12843;DHT22;35724;49.324;-123.118;2023-08-21T06:32:46;25.50;63.00
12843;DHT22;35724;49.324;-123.118;2023-08-21T06:42:53;25.50;62.80
12843;DHT22;35724;49.324;-123.118;2023-08-21T06:53:06;25.50;62.40
12843;DHT22;35724;49.324;-123.118;2023-08-21T07:03:14;25.40;62.10
12843;DHT22;35724;49.324;-123.118;2023-08-21T07:13:22;25.40;61.80
12843;DHT22;35724;49.324;-123.118;2023-08-21T07:23:29;25.50;61.80
12843;DHT22;35724;49.324;-123.118;2023-08-21T07:33:38;25.50;61.60
12843;DHT22;35724;49.324;-123.118;2023-08-21T07:43:45;25.40;61.10
12843;DHT22;35724;49.324;-123.118;2023-08-21T07:53:54;25.40;61.00
12843;DHT22;35724;49.324;-123.118;2023-08-21T08:04:04;25.40;60.90
12843;DHT22;35724;49.324;-123.118;2023-08-21T08:14:12;25.30;60.60
12843;DHT22;35724;49.324;-123.118;2023-08-21T08:24:19;25.30;60.50
12843;DHT22;35724;49.324;-123.118;2023-08-21T08:34:28;25.30;60.30
12843;DHT22;35724;49.324;-123.118;2023-08-21T08:44:35;25.30;60.10
12843;DHT22;35724;49.324;-123.118;2023-08-21T08:54:45;25.30;59.80
12843;DHT22;35724;49.324;-123.118;2023-08-21T09:04:53;25.40;59.50
12843;DHT22;35724;49.324;-123.118;2023-08-21T09:15:07;25.30;59.40
12843;DHT22;35724;49.324;-123.118;2023-08-21T09:25:15;25.30;59.20
12843;DHT22;35724;49.324;-123.118;2023-08-21T09:35:24;25.30;58.90
12843;DHT22;35724;49.324;-123.118;2023-08-21T09:45:33;25.30;58.80
12843;DHT22;35724;49.324;-123.118;2023-08-21T09:55:43;25.30;58.60
12843;DHT22;35724;49.324;-123.118;2023-08-21T10:05:50;25.20;58.50
12843;DHT22;35724;49.324;-123.118;2023-08-21T10:15:59;25.20;58.30
12843;DHT22;35724;49.324;-123.118;2023-08-21T10:26:09;25.20;58.20
12843;DHT22;35724;49.324;-123.118;2023-08-21T10:37:02;25.20;58.10
12843;DHT22;35724;49.324;-123.118;2023-08-21T10:47:15;25.20;57.90
12843;DHT22;35724;49.324;-123.118;2023-08-21T10:57:25;25.20;57.70
12843;DHT22;35724;49.324;-123.118;2023-08-21T11:07:37;25.20;57.60
12843;DHT22;35724;49.324;-123.118;2023-08-21T11:17:54;25.10;57.60
12843;DHT22;35724;49.324;-123.118;2023-08-21T11:28:01;25.10;57.40
12843;DHT22;35724;49.324;-123.118;2023-08-21T11:38:16;25.10;57.40
12843;DHT22;35724;49.324;-123.118;2023-08-21T11:48:23;25.00;57.40
12843;DHT22;35724;49.324;-123.118;2023-08-21T11:58:32;25.00;57.40
12843;DHT22;35724;49.324;-123.118;2023-08-21T12:08:40;25.00;57.40
12843;DHT22;35724;49.324;-123.118;2023-08-21T12:18:48;25.00;57.30
12843;DHT22;35724;49.324;-123.118;2023-08-21T12:28:56;25.00;57.30
12843;DHT22;35724;49.324;-123.118;2023-08-21T12:39:05;24.90;57.30
12843;DHT22;35724;49.324;-123.118;2023-08-21T12:49:12;24.90;57.20
12843;DHT22;35724;49.324;-123.118;2023-08-21T12:59:20;24.90;57.90
12843;DHT22;35724;49.324;-123.118;2023-08-21T13:09:28;24.90;57.40
12843;DHT22;35724;49.324;-123.118;2023-08-21T13:19:36;24.90;57.50
12843;DHT22;35724;49.324;-123.118;2023-08-21T13:29:43;24.90;57.60
12843;DHT22;35724;49.324;-123.118;2023-08-21T13:39:51;24.80;58.10
12843;DHT22;35724;49.324;-123.118;2023-08-21T13:49:59;24.80;58.80
12843;DHT22;35724;49.324;-123.118;2023-08-21T14:00:11;24.80;58.80
12843;DHT22;35724;49.324;-123.118;2023-08-21T14:10:18;24.80;59.10
12843;DHT22;35724;49.324;-123.118;2023-08-21T14:20:27;24.80;59.00
12843;DHT22;35724;49.324;-123.118;2023-08-21T14:30:34;24.80;59.10
12843;DHT22;35724;49.324;-123.118;2023-08-21T14:40:42;24.90;59.10
12843;DHT22;35724;49.324;-123.118;2023-08-21T14:50:49;24.90;59.00
12843;DHT22;35724;49.324;-123.118;2023-08-21T15:00:58;25.10;60.30
12843;DHT22;35724;49.324;-123.118;2023-08-21T15:11:06;25.10;60.30
12843;DHT22;35724;49.324;-123.118;2023-08-21T15:21:15;25.00;60.30
12843;DHT22;35724;49.324;-123.118;2023-08-21T15:31:22;25.00;60.10
12843;DHT22;35724;49.324;-123.118;2023-08-21T15:41:30;25.00;60.10
12843;DHT22;35724;49.324;-123.118;2023-08-21T15:51:37;25.00;61.10
12843;DHT22;35724;49.324;-123.118;2023-08-21T16:01:48;24.90;62.70
12843;DHT22;35724;49.324;-123.118;2023-08-21T16:11:54;24.90;63.30
12843;DHT22;35724;49.324;-123.118;2023-08-21T16:22:04;25.00;62.90
12843;DHT22;35724;49.324;-123.118;2023-08-21T16:32:11;25.10;62.20
12843;DHT22;35724;49.324;-123.118;2023-08-21T16:42:20;25.00;61.80
12843;DHT22;35724;49.324;-123.118;2023-08-21T16:52:27;25.10;61.10
12843;DHT22;35724;49.324;-123.118;2023-08-21T17:02:37;25.10;62.20
12843;DHT22;35724;49.324;-123.118;2023-08-21T17:12:44;25.00;61.90
12843;DHT22;35724;49.324;-123.118;2023-08-21T17:22:53;25.00;62.10
12843;DHT22;35724;49.324;-123.118;2023-08-21T17:33:00;24.90;63.00
12843;DHT22;35724;49.324;-123.118;2023-08-21T17:43:10;25.00;62.50
12843;DHT22;35724;49.324;-123.118;2023-08-21T17:53:17;24.90;63.20
12843;DHT22;35724;49.324;-123.118;2023-08-21T18:03:26;24.90;63.50
12843;DHT22;35724;49.324;-123.118;2023-08-21T18:13:33;24.90;63.70
12843;DHT22;35724;49.324;-123.118;2023-08-21T18:23:41;25.00;64.10
12843;DHT22;35724;49.324;-123.118;2023-08-21T18:33:48;25.00;63.80
12843;DHT22;35724;49.324;-123.118;2023-08-21T18:43:57;25.00;63.80
12843;DHT22;35724;49.324;-123.118;2023-08-21T18:54:04;24.90;63.90
12843;DHT22;35724;49.324;-123.118;2023-08-21T19:04:13;25.00;63.60
12843;DHT22;35724;49.324;-123.118;2023-08-21T19:14:20;25.00;63.00
12843;DHT22;35724;49.324;-123.118;2023-08-21T19:24:28;25.00;62.00
12843;DHT22;35724;49.324;-123.118;2023-08-21T19:34:35;25.00;61.30
12843;DHT22;35724;49.324;-123.118;2023-08-21T19:44:44;24.90;61.60
12843;DHT22;35724;49.324;-123.118;2023-08-21T19:54:51;24.80;62.50
12843;DHT22;35724;49.324;-123.118;2023-08-21T20:05:00;24.80;62.90
12843;DHT22;35724;49.324;-123.118;2023-08-21T20:15:08;24.90;61.40
12843;DHT22;35724;49.324;-123.118;2023-08-21T20:25:17;24.90;61.40
12843;DHT22;35724;49.324;-123.118;2023-08-21T20:35:24;24.80;61.20
12843;DHT22;35724;49.324;-123.118;2023-08-21T20:45:32;24.80;62.20
12843;DHT22;35724;49.324;-123.118;2023-08-21T20:55:40;24.80;62.60
12843;DHT22;35724;49.324;-123.118;2023-08-21T21:05:49;24.90;62.70
12843;DHT22;35724;49.324;-123.118;2023-08-21T21:15:56;24.90;63.00
12843;DHT22;35724;49.324;-123.118;2023-08-21T21:26:05;25.00;62.80
12843;DHT22;35724;49.324;-123.118;2023-08-21T21:36:12;25.00;62.60
12843;DHT22;35724;49.324;-123.118;2023-08-21T21:46:25;25.10;61.10
12843;DHT22;35724;49.324;-123.118;2023-08-21T21:56:33;25.10;61.20
12843;DHT22;35724;49.324;-123.118;2023-08-21T22:06:42;25.00;62.00
12843;DHT22;35724;49.324;-123.118;2023-08-21T22:16:49;25.10;61.10
12843;DHT22;35724;49.324;-123.118;2023-08-21T22:26:58;25.20;60.80
12843;DHT22;35724;49.324;-123.118;2023-08-21T22:37:07;25.10;60.20
12843;DHT22;35724;49.324;-123.118;2023-08-21T22:47:17;25.00;59.70
12843;DHT22;35724;49.324;-123.118;2023-08-21T22:57:24;24.90;59.80
12843;DHT22;35724;49.324;-123.118;2023-08-21T23:07:33;24.90;59.50
12843;DHT22;35724;49.324;-123.118;2023-08-21T23:17:41;24.80;59.50
12843;DHT22;35724;49.324;-123.118;2023-08-21T23:27:49;24.70;59.60
12843;DHT22;35724;49.324;-123.118;2023-08-21T23:37:57;24.70;60.10
12843;DHT22;35724;49.324;-123.118;2023-08-21T23:48:06;24.70;60.60
12843;DHT22;35724;49.324;-123.118;2023-08-21T23:58:14;24.70;60.70
